Time;durP1;ratioP1;P1;durP2;ratioP2;P2;SDS_P1;SDS_P2;PMS_P1;PMS_P2;Temp;Humidity;BMP_temperature;BMP_pressure;BME280_temperature;BME280_humidity;BME280_pressure;Samples;Min_cycle;Max_cycle;Signal;HPM_P1;HPM_P2
2022/07/11 00:00:09;;;;;;;4.53;2.80;;;16.30;99.90;;;;;;5060408;28;20368;-29
2022/07/11 00:02:39;;;;;;;3.20;2.75;;;16.30;99.90;;;;;;5062266;28;20045;-29
2022/07/11 00:05:05;;;;;;;4.55;2.75;;;16.30;99.90;;;;;;5045986;28;20051;-29
2022/07/11 00:07:31;;;;;;;5.00;3.08;;;16.20;99.90;;;;;;5063298;28;20403;-29
2022/07/11 00:09:57;;;;;;;5.00;2.72;;;16.30;99.90;;;;;;5045181;28;20037;-29
2022/07/11 00:12:26;;;;;;;6.15;2.88;;;16.20;99.90;;;;;;5075162;28;20623;-26
2022/07/11 00:14:53;;;;;;;4.00;2.65;;;16.20;99.90;;;;;;5080045;28;20044;-26
2022/07/11 00:17:19;;;;;;;4.55;2.75;;;16.20;99.90;;;;;;5067588;28;20029;-26
2022/07/11 00:19:45;;;;;;;3.55;2.80;;;16.20;99.90;;;;;;5069678;28;20059;-26
2022/07/11 00:22:11;;;;;;;4.80;2.70;;;16.20;99.90;;;;;;5068630;28;20085;-26
2022/07/11 00:24:37;;;;;;;4.05;2.80;;;16.20;99.90;;;;;;5068831;28;20036;-26
2022/07/11 00:27:03;;;;;;;4.95;2.90;;;16.20;99.90;;;;;;5068877;28;20111;-26
2022/07/11 00:29:30;;;;;;;5.80;3.13;;;16.20;99.90;;;;;;5051033;28;20044;-26
2022/07/11 00:31:56;;;;;;;6.18;3.30;;;16.20;99.90;;;;;;5060224;28;20093;-26
2022/07/11 00:34:22;;;;;;;4.22;3.05;;;16.20;99.90;;;;;;5067423;28;20502;-26
2022/07/11 00:36:47;;;;;;;5.55;2.92;;;16.10;99.90;;;;;;5072899;28;20031;-26
2022/07/11 00:39:13;;;;;;;5.30;2.80;;;16.10;99.90;;;;;;5069000;28;20067;-26
2022/07/11 00:41:39;;;;;;;3.83;2.97;;;16.10;99.90;;;;;;5068409;28;20037;-26
2022/07/11 00:44:05;;;;;;;4.57;2.80;;;16.10;99.90;;;;;;5074819;28;20044;-26
2022/07/11 00:46:30;;;;;;;5.47;3.20;;;16.10;99.90;;;;;;5068984;28;20043;-26
2022/07/11 00:48:58;;;;;;;7.18;3.20;;;16.20;99.90;;;;;;5067869;28;20499;-26
2022/07/11 00:51:24;;;;;;;8.50;3.50;;;16.10;99.90;;;;;;5069001;28;20044;-26
2022/07/11 00:53:52;;;;;;;4.25;3.10;;;16.10;99.90;;;;;;5070755;28;22256;-26
2022/07/11 00:56:23;;;;;;;4.38;3.03;;;16.10;99.90;;;;;;5074025;28;20042;-26
2022/07/11 00:58:50;;;;;;;3.72;3.10;;;16.10;99.90;;;;;;5067050;28;20437;-26
2022/07/11 01:01:17;;;;;;;8.15;3.33;;;16.10;99.90;;;;;;5064307;28;20522;-26
2022/07/11 01:03:43;;;;;;;5.22;3.33;;;16.10;99.90;;;;;;5071295;28;20048;-26
2022/07/11 01:06:09;;;;;;;4.05;3.33;;;16.00;99.90;;;;;;5056523;28;20033;-26
2022/07/11 01:08:36;;;;;;;5.10;3.60;;;16.00;99.90;;;;;;5077016;28;20037;-26
2022/07/11 01:11:03;;;;;;;4.97;4.13;;;16.00;99.90;;;;;;5078563;28;20041;-26
2022/07/11 01:13:30;;;;;;;8.75;3.80;;;16.00;99.90;;;;;;5072172;28;20754;-26
2022/07/11 01:16:16;;;;;;;4.43;3.50;;;16.00;99.90;;;;;;5071935;28;20033;-26
2022/07/11 01:18:49;;;;;;;6.25;3.42;;;16.00;99.90;;;;;;5081573;28;20043;-26
2022/07/11 01:21:31;;;;;;;;;;;16.00;99.90;;;;;;5072208;28;20040;-26
2022/07/11 01:24:01;;;;;;;6.13;3.88;;;15.90;99.90;;;;;;5071982;28;19916;-26
2022/07/11 01:26:28;;;;;;;5.30;3.67;;;15.90;99.90;;;;;;5069758;28;20044;-26
2022/07/11 01:28:57;;;;;;;4.55;3.60;;;15.90;99.90;;;;;;5081061;28;20067;-26
2022/07/11 01:31:23;;;;;;;7.95;3.47;;;15.90;99.90;;;;;;5075638;28;20056;-26
2022/07/11 01:33:49;;;;;;;5.65;4.03;;;15.80;99.90;;;;;;5053011;28;20048;-26
2022/07/11 01:36:15;;;;;;;6.78;4.00;;;15.80;99.90;;;;;;5070943;28;20032;-26
2022/07/11 01:38:41;;;;;;;5.85;3.97;;;15.80;99.90;;;;;;5071502;28;20036;-26
2022/07/11 01:41:07;;;;;;;6.80;3.60;;;15.80;99.90;;;;;;5067381;28;20024;-26
2022/07/11 01:43:33;;;;;;;5.78;4.25;;;15.80;99.90;;;;;;5072368;28;20044;-26
2022/07/11 01:45:59;;;;;;;3.88;3.47;;;15.80;99.90;;;;;;5067026;28;20373;-26
2022/07/11 01:48:25;;;;;;;7.53;3.78;;;15.80;99.90;;;;;;5069475;28;20051;-26
2022/07/11 01:50:51;;;;;;;5.28;3.70;;;15.80;99.90;;;;;;5045436;28;20518;-26
2022/07/11 01:53:17;;;;;;;4.22;3.72;;;15.80;99.90;;;;;;5068809;28;20040;-26
2022/07/11 01:55:43;;;;;;;6.47;4.00;;;15.80;99.90;;;;;;5070354;28;20036;-26
2022/07/11 01:58:09;;;;;;;4.28;3.78;;;15.80;99.90;;;;;;5079717;28;20042;-26
2022/07/11 02:00:35;;;;;;;5.60;3.55;;;15.70;99.90;;;;;;5071438;28;20033;-26
2022/07/11 02:03:01;;;;;;;5.00;3.67;;;15.70;99.90;;;;;;5073215;28;20098;-26
2022/07/11 02:05:26;;;;;;;5.63;3.75;;;15.70;99.90;;;;;;5070808;28;20115;-26
2022/07/11 02:10:36;;;;;;;4.10;3.70;;;15.70;99.90;;;;;;5074272;28;20075;-26
2022/07/11 02:13:02;;;;;;;5.32;4.55;;;15.70;99.90;;;;;;5075403;28;20078;-26
2022/07/11 02:15:29;;;;;;;6.35;3.97;;;15.70;99.90;;;;;;5047270;28;20044;-26
2022/07/11 02:17:56;;;;;;;6.50;4.80;;;15.70;99.90;;;;;;5062691;28;20115;-26
2022/07/11 02:20:22;;;;;;;4.95;4.55;;;15.70;99.90;;;;;;5083390;28;20143;-26
2022/07/11 02:22:48;;;;;;;6.95;4.80;;;15.70;99.90;;;;;;5058479;28;20029;-26
2022/07/11 02:25:14;;;;;;;6.60;5.40;;;15.70;99.90;;;;;;5083051;28;20406;-26
2022/07/11 02:27:41;;;;;;;8.00;5.38;;;15.70;99.90;;;;;;5080678;28;20033;-27
2022/07/11 02:30:07;;;;;;;8.50;5.15;;;15.60;99.90;;;;;;5071907;28;20106;-29
2022/07/11 02:32:33;;;;;;;9.40;5.68;;;15.60;99.90;;;;;;5065363;28;20037;-29
2022/07/11 02:34:59;;;;;;;6.72;5.10;;;15.60;99.90;;;;;;5059161;28;20072;-29
2022/07/11 02:37:25;;;;;;;8.02;4.78;;;15.60;99.90;;;;;;5041000;28;20040;-29
2022/07/11 02:39:51;;;;;;;7.60;5.35;;;15.60;99.90;;;;;;5063508;28;20464;-29
2022/07/11 02:42:18;;;;;;;5.35;4.85;;;15.60;99.90;;;;;;5077145;28;20119;-29
2022/07/11 02:44:44;;;;;;;7.45;4.43;;;15.60;99.90;;;;;;5071431;28;20487;-30
2022/07/11 02:47:10;;;;;;;7.63;5.13;;;15.60;99.90;;;;;;5070477;28;20056;-30
2022/07/11 02:49:35;;;;;;;6.75;4.88;;;15.60;99.90;;;;;;5072636;28;20171;-29
2022/07/11 02:52:01;;;;;;;8.00;5.28;;;15.60;99.90;;;;;;5068224;28;20044;-28
2022/07/11 02:54:27;;;;;;;7.80;5.28;;;15.60;99.90;;;;;;5071693;28;20477;-27
2022/07/11 02:56:52;;;;;;;7.45;5.15;;;15.60;99.90;;;;;;5071363;28;20107;-26
2022/07/11 02:59:18;;;;;;;8.70;4.95;;;15.60;99.90;;;;;;5075375;28;20036;-29
2022/07/11 03:01:44;;;;;;;6.35;5.07;;;15.60;99.90;;;;;;5092645;28;20032;-29
2022/07/11 03:04:10;;;;;;;7.53;5.75;;;15.60;99.90;;;;;;5071302;28;20716;-27
2022/07/11 03:06:38;;;;;;;7.10;5.13;;;15.60;99.90;;;;;;5068842;28;20067;-28
2022/07/11 03:09:05;;;;;;;6.97;5.40;;;15.60;99.90;;;;;;5073053;28;20040;-27
2022/07/11 03:11:31;;;;;;;8.68;5.35;;;15.60;99.90;;;;;;5083282;28;20059;-27
2022/07/11 03:13:58;;;;;;;11.93;6.15;;;15.50;99.90;;;;;;5066606;28;20045;-27
2022/07/11 03:16:24;;;;;;;7.95;4.95;;;15.50;99.90;;;;;;5080388;28;20487;-27
2022/07/11 03:18:50;;;;;;;5.68;5.13;;;15.50;99.90;;;;;;5071541;28;20066;-27
2022/07/11 03:21:15;;;;;;;8.68;5.32;;;15.50;99.90;;;;;;5067637;28;20025;-27
2022/07/11 03:23:41;;;;;;;6.55;5.10;;;15.50;99.90;;;;;;5065121;28;20093;-27
2022/07/11 03:26:07;;;;;;;8.35;5.22;;;15.50;99.90;;;;;;5078708;28;20058;-28
2022/07/11 03:28:32;;;;;;;8.20;5.95;;;15.40;99.90;;;;;;5072453;28;20063;-27
2022/07/11 03:30:58;;;;;;;8.65;5.93;;;15.50;99.90;;;;;;5057746;28;20704;-27
2022/07/11 03:33:24;;;;;;;6.82;5.22;;;15.50;99.90;;;;;;5076263;28;20048;-27
2022/07/11 03:35:50;;;;;;;8.18;5.30;;;15.50;99.90;;;;;;5080165;28;20036;-27
2022/07/11 03:38:20;;;;;;;6.57;5.95;;;15.50;99.90;;;;;;5071558;28;20052;-27
2022/07/11 03:40:47;;;;;;;6.13;5.53;;;15.50;99.90;;;;;;5070662;28;20036;-27
2022/07/11 03:43:13;;;;;;;8.30;6.13;;;15.50;99.90;;;;;;5059723;28;20055;-27
2022/07/11 03:45:39;;;;;;;6.53;5.72;;;15.50;99.90;;;;;;5070842;28;20044;-27
2022/07/11 03:48:06;;;;;;;7.72;5.65;;;15.50;99.90;;;;;;5090021;28;20486;-28
2022/07/11 03:50:31;;;;;;;7.80;5.53;;;15.50;99.90;;;;;;5061852;28;20045;-27
2022/07/11 03:52:58;;;;;;;7.88;5.75;;;15.50;99.90;;;;;;5078443;28;20043;-27
2022/07/11 03:55:24;;;;;;;6.10;5.43;;;15.50;99.90;;;;;;5074203;28;20044;-27
2022/07/11 03:57:50;;;;;;;7.88;5.03;;;15.50;99.90;;;;;;5065564;28;20032;-27
2022/07/11 04:00:16;;;;;;;6.70;5.38;;;15.60;99.90;;;;;;5058408;28;20119;-27
2022/07/11 04:02:42;;;;;;;6.13;5.50;;;15.60;99.90;;;;;;5079132;28;20036;-27
2022/07/11 04:05:08;;;;;;;5.78;5.10;;;15.60;99.90;;;;;;5065146;28;20035;-27
2022/07/11 04:07:34;;;;;;;5.93;4.88;;;15.60;99.90;;;;;;5070580;28;20036;-27
2022/07/11 04:10:00;;;;;;;5.95;4.50;;;15.60;99.90;;;;;;5034342;28;20037;-28
2022/07/11 04:12:26;;;;;;;8.63;5.00;;;15.60;99.90;;;;;;5060581;28;20087;-27
2022/07/11 04:14:52;;;;;;;8.07;5.03;;;15.60;99.90;;;;;;5077478;28;20032;-27
2022/07/11 04:17:17;;;;;;;7.38;5.13;;;15.60;99.90;;;;;;5065303;28;20043;-27
2022/07/11 04:19:43;;;;;;;5.90;4.45;;;15.70;99.90;;;;;;5071969;28;20033;-27
2022/07/11 04:22:09;;;;;;;6.20;4.63;;;15.70;99.90;;;;;;5070498;28;20047;-27
2022/07/11 04:24:35;;;;;;;5.32;4.40;;;15.70;99.90;;;;;;5059548;28;20044;-27
2022/07/11 04:27:00;;;;;;;5.72;4.63;;;15.70;99.90;;;;;;5072191;28;20091;-27
2022/07/11 04:29:26;;;;;;;5.97;4.50;;;15.70;99.90;;;;;;5062526;28;20148;-27
2022/07/11 04:31:52;;;;;;;6.72;4.97;;;15.70;99.90;;;;;;5084973;23;20036;-87
2022/07/11 04:34:18;;;;;;;5.28;4.32;;;15.70;99.90;;;;;;5052306;28;20033;-87
2022/07/11 04:36:45;;;;;;;7.05;4.75;;;15.70;99.90;;;;;;5052082;28;20054;-86
2022/07/11 04:39:10;;;;;;;7.07;4.47;;;15.80;99.90;;;;;;5074858;28;20105;-87
2022/07/11 04:41:36;;;;;;;8.82;4.60;;;15.80;99.90;;;;;;5079306;28;20076;-86
2022/07/11 04:44:02;;;;;;;4.90;4.50;;;15.80;99.90;;;;;;5091856;28;20039;-86
2022/07/11 04:46:28;;;;;;;8.40;5.00;;;15.90;99.90;;;;;;5084421;28;20040;-87
2022/07/11 04:48:55;;;;;;;9.20;4.85;;;15.80;99.90;;;;;;5085574;28;20119;-87
2022/07/11 04:51:21;;;;;;;7.75;4.97;;;15.90;99.90;;;;;;5058482;28;20467;-87
2022/07/11 04:53:47;;;;;;;7.75;4.85;;;15.90;99.90;;;;;;5062046;28;20052;-87
2022/07/11 04:56:13;;;;;;;6.55;4.65;;;15.90;99.90;;;;;;5086519;28;20042;-87
2022/07/11 04:58:38;;;;;;;5.25;4.75;;;16.00;99.90;;;;;;5056273;28;20434;-87
2022/07/11 05:01:04;;;;;;;7.07;4.20;;;16.00;99.90;;;;;;5072200;28;20045;-87
2022/07/11 05:03:32;;;;;;;4.97;4.15;;;16.00;99.90;;;;;;5060402;28;20506;-87
2022/07/11 05:05:58;;;;;;;7.03;4.35;;;16.00;99.90;;;;;;5076475;28;20449;-87
2022/07/11 05:08:24;;;;;;;8.75;3.90;;;16.00;99.90;;;;;;5074738;28;20036;-87
2022/07/11 05:10:50;;;;;;;5.55;4.05;;;16.00;99.90;;;;;;5087769;28;20043;-87
2022/07/11 05:13:15;;;;;;;4.78;3.90;;;16.00;99.90;;;;;;5096047;28;20044;-87
2022/07/11 05:15:41;;;;;;;5.28;3.67;;;16.10;99.90;;;;;;5079417;28;20042;-86
2022/07/11 05:18:07;;;;;;;4.28;3.45;;;16.20;99.90;;;;;;5076989;28;20028;-86
2022/07/11 05:20:32;;;;;;;5.13;3.75;;;16.30;99.90;;;;;;5061970;28;20056;-87
2022/07/11 05:22:59;;;;;;;4.07;2.83;;;16.40;99.90;;;;;;5088753;28;20035;-87
2022/07/11 05:25:25;;;;;;;3.17;2.80;;;16.50;99.90;;;;;;5093492;28;20059;-87
2022/07/11 05:27:54;;;;;;;3.20;2.50;;;16.50;99.90;;;;;;5060451;28;20040;-90
2022/07/11 05:30:21;;;;;;;2.63;2.42;;;16.50;99.90;;;;;;5079739;28;20416;-87
2022/07/11 05:32:47;;;;;;;2.83;2.58;;;16.60;99.90;;;;;;5082178;28;20469;-87
2022/07/11 05:35:13;;;;;;;3.70;2.30;;;16.50;99.90;;;;;;5081907;28;20024;-86
2022/07/11 05:37:38;;;;;;;3.70;2.47;;;16.50;99.90;;;;;;5071305;28;20028;-86
2022/07/11 05:40:05;;;;;;;2.35;2.05;;;16.40;99.90;;;;;;5073169;28;20039;-81
2022/07/11 05:42:34;;;;;;;2.83;2.00;;;16.40;99.90;;;;;;5089605;28;20071;-86
2022/07/11 05:45:00;;;;;;;2.35;2.03;;;16.40;99.90;;;;;;5078818;28;20618;-86
2022/07/11 05:47:28;;;;;;;2.95;1.92;;;16.50;99.90;;;;;;5066464;28;20051;-88
2022/07/11 05:49:54;;;;;;;2.10;1.90;;;16.50;99.90;;;;;;5086942;28;20043;-86
2022/07/11 05:52:19;;;;;;;1.80;1.70;;;16.50;99.90;;;;;;5081687;28;20036;-86
2022/07/11 05:54:45;;;;;;;2.63;1.58;;;16.50;99.90;;;;;;5084423;28;20048;-87
2022/07/11 05:57:11;;;;;;;1.98;1.70;;;16.60;99.90;;;;;;5090538;28;20412;-87
2022/07/11 05:59:38;;;;;;;1.90;1.50;;;16.60;99.90;;;;;;5089895;28;20043;-87
2022/07/11 06:02:04;;;;;;;3.53;1.80;;;16.60;99.90;;;;;;5087443;28;20412;-86
2022/07/11 06:04:31;;;;;;;2.28;1.63;;;16.70;99.90;;;;;;5081617;28;20096;-87
2022/07/11 06:06:57;;;;;;;1.98;1.73;;;16.80;99.90;;;;;;5070303;28;20075;-87
2022/07/11 06:09:23;;;;;;;1.88;1.75;;;16.90;99.90;;;;;;5099510;28;20542;-87
2022/07/11 06:11:49;;;;;;;1.77;1.45;;;17.00;99.90;;;;;;5070136;28;20046;-87
2022/07/11 06:14:15;;;;;;;2.60;1.98;;;17.00;99.90;;;;;;5083794;28;20047;-87
2022/07/11 06:16:41;;;;;;;3.03;1.88;;;17.00;99.90;;;;;;5070746;28;20040;-86
2022/07/11 06:19:06;;;;;;;1.85;1.60;;;17.00;99.90;;;;;;5073061;28;20029;-86
2022/07/11 06:21:35;;;;;;;1.67;1.35;;;17.00;99.90;;;;;;5065522;28;20158;-88
2022/07/11 06:24:04;;;;;;;2.42;1.55;;;17.00;99.90;;;;;;5067043;28;20044;-88
2022/07/11 06:27:00;;;;;;;2.17;1.60;;;17.10;99.90;;;;;;5057883;28;20443;-87
2022/07/11 06:29:59;;;;;;;3.05;1.95;;;17.20;99.90;;;;;;5095242;28;20130;-87
2022/07/11 06:33:06;;;;;;;1.50;1.30;;;17.30;99.90;;;;;;5021713;28;20084;-86
2022/07/11 06:40:20;;;;;;;;;;;;;;;;;;;;;
2022/07/11 06:43:13;;;;;;;1.20;0.98;;;17.80;99.90;;;;;;5020208;28;20132;-87
2022/07/11 06:45:44;;;;;;;1.42;0.73;;;17.80;99.90;;;;;;5081689;28;20130;-86
2022/07/11 06:48:25;;;;;;;1.83;1.20;;;17.80;99.90;;;;;;5065701;28;20027;-87
2022/07/11 06:51:38;;;;;;;1.35;1.00;;;17.70;99.90;;;;;;5080837;28;20514;-86
2022/07/11 06:54:31;;;;;;;1.20;1.10;;;17.60;99.90;;;;;;5093468;28;20109;-86
2022/07/11 06:57:19;;;;;;;1.10;1.00;;;17.60;99.90;;;;;;5063151;28;20044;-86
2022/07/11 07:02:57;;;;;;;1.50;1.25;;;17.40;99.90;;;;;;5072640;23;20041;-26
2022/07/11 07:05:24;;;;;;;1.48;1.30;;;17.40;99.90;;;;;;5071635;28;20048;-26
2022/07/11 07:07:51;;;;;;;1.48;1.30;;;17.50;99.90;;;;;;5058050;28;20037;-26
2022/07/11 07:10:17;;;;;;;2.42;1.45;;;17.50;99.90;;;;;;5042161;28;20396;-25
2022/07/11 07:12:44;;;;;;;3.03;1.60;;;17.40;99.90;;;;;;5051959;28;20439;-25
2022/07/11 07:15:11;;;;;;;1.80;1.23;;;17.50;99.90;;;;;;5051430;28;20044;-26
2022/07/11 07:17:38;;;;;;;2.05;1.10;;;17.50;99.90;;;;;;5051331;28;20091;-34
2022/07/11 07:20:04;;;;;;;2.22;1.33;;;17.50;99.90;;;;;;5041393;28;20106;-30
2022/07/11 07:22:30;;;;;;;2.50;1.40;;;17.50;99.90;;;;;;5034580;28;20116;-31
2022/07/11 07:24:56;;;;;;;2.60;1.20;;;17.50;99.90;;;;;;5024980;28;20133;-27
2022/07/11 07:27:22;;;;;;;2.17;1.20;;;17.60;99.90;;;;;;5031522;28;20045;-26
2022/07/11 07:29:48;;;;;;;1.55;1.27;;;17.60;99.90;;;;;;5031692;28;20500;-26
2022/07/11 07:32:14;;;;;;;1.58;1.45;;;17.70;99.90;;;;;;5031562;28;20480;-27
2022/07/11 07:34:40;;;;;;;1.38;1.20;;;17.90;99.90;;;;;;5031206;28;20451;-27
2022/07/11 07:37:06;;;;;;;2.15;0.95;;;18.00;99.90;;;;;;5031443;28;20492;-26
2022/07/11 07:39:31;;;;;;;1.52;1.20;;;18.10;99.90;;;;;;5031330;28;20091;-27
2022/07/11 07:41:57;;;;;;;1.63;1.20;;;18.20;99.90;;;;;;5031557;28;20642;-26
2022/07/11 07:44:23;;;;;;;1.35;1.10;;;18.20;99.90;;;;;;5031153;28;20496;-26
2022/07/11 07:46:48;;;;;;;1.23;0.90;;;18.20;99.90;;;;;;5031241;28;20037;-26
2022/07/11 07:49:14;;;;;;;2.00;1.10;;;18.00;99.90;;;;;;5031354;28;20044;-26
2022/07/11 07:51:40;;;;;;;2.90;0.95;;;18.00;99.90;;;;;;5031039;28;20037;-27
2022/07/11 07:54:05;;;;;;;0.82;0.82;;;18.00;99.90;;;;;;5030867;28;20432;-26
2022/07/11 07:56:31;;;;;;;0.60;0.60;;;18.10;99.90;;;;;;5030750;28;20083;-28
2022/07/11 07:58:57;;;;;;;1.45;1.00;;;18.20;99.90;;;;;;5031204;28;20041;-27
2022/07/11 08:01:34;;;;;;;2.80;0.90;;;18.40;99.90;;;;;;5030770;28;20041;-28
2022/07/11 08:04:05;;;;;;;0.75;0.60;;;18.70;99.90;;;;;;5030920;28;20045;-26
2022/07/11 08:06:31;;;;;;;2.45;0.75;;;19.00;99.90;;;;;;5031106;28;20041;-26
2022/07/11 08:08:57;;;;;;;0.95;0.60;;;19.00;99.90;;;;;;5030763;28;20084;-27
2022/07/11 08:11:23;;;;;;;0.80;0.47;;;19.10;99.90;;;;;;5030860;28;20045;-26
2022/07/11 08:13:52;;;;;;;1.25;0.60;;;19.10;99.90;;;;;;5030328;28;20038;-26
2022/07/11 08:16:18;;;;;;;0.75;0.47;;;19.20;99.90;;;;;;5031001;28;20079;-27
2022/07/11 08:18:43;;;;;;;0.70;0.40;;;19.30;99.90;;;;;;5031823;28;20073;-27
2022/07/11 08:21:09;;;;;;;1.20;0.70;;;19.50;99.90;;;;;;5050647;28;20098;-26
2022/07/11 08:23:35;;;;;;;0.60;0.60;;;19.80;99.90;;;;;;5050999;28;20467;-27
2022/07/11 08:26:01;;;;;;;1.52;0.50;;;19.90;99.90;;;;;;5049222;28;20040;-26
2022/07/11 08:28:27;;;;;;;1.83;0.60;;;20.00;99.90;;;;;;5050607;28;20423;-28
2022/07/11 08:30:53;;;;;;;0.55;0.47;;;20.00;99.90;;;;;;5050791;28;20126;-27
2022/07/11 08:33:18;;;;;;;1.85;0.60;;;19.90;99.90;;;;;;5046162;28;20042;-32
2022/07/11 08:35:45;;;;;;;1.33;0.70;;;19.80;99.90;;;;;;5035334;28;20033;-31
2022/07/11 08:38:11;;;;;;;1.05;0.55;;;19.70;99.90;;;;;;5045800;28;20032;-29
2022/07/11 08:40:40;;;;;;;0.60;0.40;;;19.50;99.90;;;;;;5040037;28;20036;-34
2022/07/11 08:43:16;;;;;;;0.50;0.50;;;19.20;99.90;;;;;;5040009;28;20550;-34
2022/07/11 08:45:43;;;;;;;1.00;0.65;;;19.30;99.90;;;;;;5019471;28;20565;-31
2022/07/11 08:48:09;;;;;;;0.40;0.40;;;19.50;99.90;;;;;;5033048;28;20078;-36
2022/07/11 08:50:37;;;;;;;1.38;0.60;;;19.80;99.90;;;;;;5036800;28;20123;-30
2022/07/11 08:53:04;;;;;;;0.93;0.40;;;20.10;99.90;;;;;;5037990;28;20284;-32
2022/07/11 08:55:30;;;;;;;1.38;0.50;;;20.30;99.90;;;;;;5034735;28;20393;-36
2022/07/11 08:57:56;;;;;;;0.95;0.57;;;20.40;99.90;;;;;;5032092;28;20076;-31
2022/07/11 09:00:22;;;;;;;0.77;0.45;;;20.60;99.90;;;;;;5036295;28;20122;-31
2022/07/11 09:02:49;;;;;;;0.68;0.50;;;21.00;99.90;;;;;;5023887;28;20044;-36
2022/07/11 09:05:15;;;;;;;0.38;0.38;;;21.10;99.90;;;;;;5040280;28;20060;-30
2022/07/11 09:07:48;;;;;;;0.40;0.40;;;21.00;99.90;;;;;;5039629;28;20033;-32
2022/07/11 09:10:15;;;;;;;0.55;0.55;;;20.80;99.90;;;;;;5039867;28;20256;-31
2022/07/11 09:13:04;;;;;;;1.45;0.50;;;20.50;99.90;;;;;;5043422;28;20120;-35
2022/07/11 09:15:34;;;;;;;0.50;0.50;;;20.30;99.90;;;;;;5035826;28;20044;-34
2022/07/11 09:18:00;;;;;;;0.40;0.40;;;20.10;99.90;;;;;;5043843;28;20037;-31
2022/07/11 09:25:19;;;;;;;0.40;0.40;;;19.80;99.90;;;;;;5042493;28;20069;-32
2022/07/11 09:26:06;;;;;;;;;;;19.90;99.90;;;;;;5038566;28;20040;-32
2022/07/11 09:28:34;;;;;;;0.63;0.47;;;20.00;99.90;;;;;;5045159;28;19917;-31
2022/07/11 09:31:15;;;;;;;1.00;0.40;;;20.10;99.90;;;;;;5043050;28;20480;-34
2022/07/11 09:34:01;;;;;;;0.50;0.50;;;20.30;99.90;;;;;;5039474;28;20049;-32
2022/07/11 09:36:37;;;;;;;1.58;0.50;;;20.40;99.90;;;;;;5044134;28;20037;-34
2022/07/11 09:39:04;;;;;;;0.80;0.50;;;20.50;99.90;;;;;;5041282;28;20076;-30
2022/07/11 09:41:34;;;;;;;0.70;0.40;;;20.30;99.90;;;;;;5050660;28;20064;-33
2022/07/11 09:44:07;;;;;;;1.10;0.50;;;20.40;99.90;;;;;;5039167;28;20080;-33
2022/07/11 09:46:45;;;;;;;0.70;0.40;;;20.40;99.90;;;;;;5039867;28;20064;-35
2022/07/11 09:49:11;;;;;;;0.40;0.40;;;20.50;99.90;;;;;;5046370;28;20508;-30
2022/07/11 09:51:38;;;;;;;0.30;0.30;;;20.70;99.90;;;;;;5029611;28;20068;-34
2022/07/11 09:54:05;;;;;;;0.50;0.30;;;20.90;99.90;;;;;;5037792;28;20044;-33
2022/07/11 09:56:40;;;;;;;0.20;0.20;;;21.20;99.90;;;;;;5026243;28;20582;-34
2022/07/11 09:59:07;;;;;;;0.30;0.30;;;21.70;99.90;;;;;;5045323;28;20067;-35
2022/07/11 10:01:33;;;;;;;0.47;0.47;;;21.80;99.90;;;;;;5044865;28;20033;-32
2022/07/11 10:03:59;;;;;;;0.40;0.40;;;21.80;99.90;;;;;;5050574;28;20090;-32
2022/07/11 10:06:26;;;;;;;0.40;0.40;;;21.70;99.90;;;;;;5046714;28;20515;-32
2022/07/11 10:08:52;;;;;;;1.25;0.30;;;21.60;99.90;;;;;;5038022;28;20037;-31
2022/07/11 10:11:21;;;;;;;0.32;0.30;;;21.50;99.90;;;;;;5035943;28;20516;-31
2022/07/11 10:13:48;;;;;;;1.10;0.30;;;21.40;99.90;;;;;;5049187;28;20037;-31
2022/07/11 10:16:25;;;;;;;0.35;0.30;;;21.30;99.90;;;;;;5046307;28;20166;-32
2022/07/11 10:19:06;;;;;;;2.17;0.50;;;21.20;99.90;;;;;;5034703;28;20042;-35
2022/07/11 10:22:09;;;;;;;0.73;0.40;;;21.20;99.90;;;;;;5030621;28;20045;-34
2022/07/11 10:24:59;;;;;;;0.30;0.30;;;21.20;99.90;;;;;;5039470;28;20056;-34
2022/07/11 10:27:47;;;;;;;0.90;0.43;;;21.30;99.90;;;;;;5035865;28;20040;-33
2022/07/11 10:30:12;;;;;;;0.40;0.40;;;21.30;99.90;;;;;;5033504;28;20072;-33
2022/07/11 10:32:58;;;;;;;0.50;0.40;;;21.40;99.90;;;;;;5091422;22;20036;-28
2022/07/11 10:35:23;;;;;;;0.52;0.43;;;21.50;99.90;;;;;;5081979;28;20392;-27
2022/07/11 10:37:53;;;;;;;0.60;0.43;;;21.70;99.90;;;;;;5111708;28;20039;-27
2022/07/11 10:40:45;;;;;;;0.50;0.50;;;21.80;99.90;;;;;;5113394;28;20032;-27
2022/07/11 10:43:12;;;;;;;0.63;0.40;;;22.00;99.90;;;;;;5109761;28;20119;-28
2022/07/11 10:45:57;;;;;;;0.50;0.30;;;22.00;99.90;;;;;;5074735;28;20112;-27
2022/07/11 10:48:24;;;;;;;0.35;0.30;;;22.00;99.90;;;;;;5079096;28;20116;-27
2022/07/11 10:51:04;;;;;;;0.30;0.30;;;22.00;99.90;;;;;;5106040;28;20035;-28
2022/07/11 10:53:46;;;;;;;0.30;0.20;;;21.90;99.90;;;;;;5104139;28;20528;-27
2022/07/11 10:56:33;;;;;;;0.63;0.50;;;21.90;99.90;;;;;;5074886;28;20142;-27
2022/07/11 10:59:16;;;;;;;2.05;0.50;;;21.80;99.90;;;;;;5094484;28;20120;-27
2022/07/11 11:02:04;;;;;;;0.77;0.50;;;21.70;99.90;;;;;;5072418;28;20075;-27
2022/07/11 11:04:58;;;;;;;0.55;0.40;;;21.80;99.90;;;;;;5081621;28;20111;-27
2022/07/11 11:07:36;;;;;;;0.60;0.40;;;21.80;99.90;;;;;;5087364;28;20403;-28
2022/07/11 11:10:06;;;;;;;0.40;0.40;;;21.80;99.90;;;;;;5089526;28;20044;-28
2022/07/11 11:13:00;;;;;;;0.30;0.30;;;21.80;99.90;;;;;;5083592;28;20427;-31
2022/07/11 11:15:32;;;;;;;0.40;0.40;;;21.80;99.90;;;;;;5081475;28;20055;-31
2022/07/11 11:18:22;;;;;;;2.45;0.50;;;21.80;99.90;;;;;;5083477;28;20028;-29
2022/07/11 11:21:00;;;;;;;0.55;0.40;;;21.80;99.90;;;;;;5084903;28;20537;-27
2022/07/11 11:23:28;;;;;;;0.43;0.38;;;21.70;99.90;;;;;;5081996;28;20048;-28
2022/07/11 11:25:53;;;;;;;5.40;0.30;;;21.70;99.90;;;;;;5082852;28;20390;-29
2022/07/11 11:28:23;;;;;;;0.35;0.35;;;21.70;99.90;;;;;;5091531;28;20036;-26
2022/07/11 11:30:56;;;;;;;0.70;0.40;;;21.80;99.90;;;;;;5092270;28;20521;-26
2022/07/11 11:33:26;;;;;;;1.20;0.47;;;22.10;99.90;;;;;;5091365;28;20111;-26
2022/07/11 11:36:06;;;;;;;0.35;0.30;;;22.20;99.90;;;;;;5092165;28;20040;-26
2022/07/11 11:38:37;;;;;;;0.30;0.30;;;22.20;99.90;;;;;;5091705;28;20112;-26
2022/07/11 11:41:07;;;;;;;0.95;0.50;;;22.20;99.90;;;;;;5090587;28;20487;-27
2022/07/11 11:43:34;;;;;;;1.05;0.38;;;22.00;99.90;;;;;;5091937;28;20048;-26
2022/07/11 11:46:03;;;;;;;2.00;0.43;;;22.00;99.90;;;;;;5091828;28;20130;-26
2022/07/11 11:48:33;;;;;;;1.02;0.47;;;21.80;99.90;;;;;;5090911;28;20037;-26
2022/07/11 11:51:07;;;;;;;0.93;0.47;;;21.80;99.90;;;;;;5091894;28;20084;-26
2022/07/11 11:53:49;;;;;;;1.20;0.40;;;21.70;99.90;;;;;;5091857;28;20076;-26
2022/07/11 11:56:41;;;;;;;0.85;0.60;;;21.80;99.90;;;;;;5091782;28;20111;-27
2022/07/11 11:59:12;;;;;;;0.73;0.40;;;21.80;99.90;;;;;;5089504;28;20048;-27
2022/07/11 12:01:42;;;;;;;1.13;0.52;;;21.80;99.90;;;;;;5091684;28;20120;-27
2022/07/11 12:04:13;;;;;;;0.38;0.30;;;22.00;99.90;;;;;;5091525;28;20044;-26
2022/07/11 12:06:43;;;;;;;1.17;0.40;;;22.30;99.90;;;;;;5090725;28;20108;-26
2022/07/11 12:09:15;;;;;;;0.30;0.30;;;22.50;99.90;;;;;;5092104;28;20552;-27
2022/07/11 12:11:46;;;;;;;2.08;0.50;;;22.60;99.90;;;;;;5087930;28;20367;-31
2022/07/11 12:14:14;;;;;;;0.70;0.50;;;22.50;99.90;;;;;;5078168;28;20024;-31
2022/07/11 12:16:46;;;;;;;0.40;0.40;;;22.50;99.90;;;;;;5088509;28;20036;-31
2022/07/11 12:19:17;;;;;;;0.40;0.40;;;22.40;99.90;;;;;;5083845;28;20053;-31
2022/07/11 12:21:47;;;;;;;0.50;0.40;;;22.40;99.90;;;;;;5083111;28;20432;-31
2022/07/11 12:24:16;;;;;;;0.30;0.30;;;22.30;99.90;;;;;;5079922;28;20089;-31
2022/07/11 12:26:43;;;;;;;1.30;0.50;;;22.20;99.90;;;;;;5077618;28;20037;-30
2022/07/11 12:29:19;;;;;;;0.77;0.40;;;22.00;99.90;;;;;;5073622;28;20088;-29
2022/07/11 12:31:53;;;;;;;0.65;0.50;;;22.00;99.90;;;;;;5086493;28;20040;-29
2022/07/11 12:34:22;;;;;;;0.43;0.40;;;22.00;99.90;;;;;;5087268;28;20542;-29
2022/07/11 12:36:48;;;;;;;1.20;0.43;;;22.00;99.90;;;;;;5096592;28;20092;-29
2022/07/11 12:39:26;;;;;;;0.40;0.38;;;22.00;99.90;;;;;;5082186;28;20146;-29
2022/07/11 12:41:52;;;;;;;1.10;0.52;;;22.20;99.90;;;;;;5084229;28;20040;-29
2022/07/11 12:47:07;;;;;;;0.40;0.40;;;22.50;99.90;;;;;;5049843;28;20036;-88
2022/07/11 12:49:33;;;;;;;0.60;0.60;;;22.60;99.90;;;;;;5047717;28;20043;-87
2022/07/11 12:52:00;;;;;;;0.60;0.50;;;22.80;99.90;;;;;;5030668;28;20087;-89
2022/07/11 12:54:33;;;;;;;0.30;0.30;;;23.00;99.90;;;;;;5014514;28;20037;-89
2022/07/11 12:57:04;;;;;;;0.75;0.40;;;23.10;99.90;;;;;;5030651;28;20037;-88
2022/07/11 12:59:31;;;;;;;1.42;0.60;;;23.30;99.90;;;;;;5032033;28;20033;-88
2022/07/11 13:02:26;;;;;;;0.30;0.30;;;23.40;99.90;;;;;;5034301;28;20404;-88
2022/07/11 13:04:52;;;;;;;0.63;0.50;;;23.60;99.90;;;;;;5033805;28;20045;-88
2022/07/11 13:10:19;;;;;;;1.00;0.60;;;23.70;99.90;;;;;;5042841;28;20052;-88
2022/07/11 13:12:46;;;;;;;1.10;0.47;;;23.60;99.90;;;;;;5050955;28;20485;-88
2022/07/11 13:15:15;;;;;;;0.88;0.50;;;23.50;99.90;;;;;;5028189;28;20413;-87
2022/07/11 13:17:43;;;;;;;0.38;0.38;;;23.30;99.90;;;;;;5027903;28;20074;-89